createdAt,value
2017-04-10T08:34:20.044Z,1018.48
2017-04-10T08:35:29.385Z,1018.48
2017-04-10T08:36:39.500Z,1018.54
2017-04-10T08:37:49.535Z,1018.54
2017-04-10T08:38:59.563Z,1018.62
2017-04-10T08:40:09.296Z,1018.68
2017-04-10T08:41:19.500Z,1018.78
2017-04-10T08:42:29.703Z,1018.69
2017-04-10T08:43:39.443Z,1018.74
2017-04-10T08:44:49.107Z,1018.73
2017-04-10T08:45:58.853Z,1018.74
2017-04-10T08:47:08.350Z,1018.77
2017-04-10T08:48:18.437Z,1018.83
2017-04-10T08:49:27.834Z,1018.85
2017-04-10T08:50:38.278Z,1018.85
2017-04-10T08:51:47.999Z,1018.81
2017-04-10T08:52:57.843Z,1018.82
2017-04-10T08:54:07.928Z,1018.83
2017-04-10T08:55:17.330Z,1018.86
2017-04-10T08:56:27.312Z,1018.85
2017-04-10T08:57:37.033Z,1018.83
2017-04-10T08:58:46.760Z,1018.91
2017-04-10T08:59:56.657Z,1018.92
2017-04-10T09:01:06.466Z,1018.88
2017-04-10T09:02:16.493Z,1018.91
2017-04-10T09:03:26.529Z,1018.85
2017-04-10T09:04:36.062Z,1018.91
2017-04-10T09:05:46.424Z,1018.92
2017-04-10T09:06:56.716Z,1018.93
2017-04-10T09:08:06.467Z,1018.94
2017-04-10T09:09:15.875Z,1018.96
2017-04-10T09:10:25.928Z,1018.95
2017-04-10T09:11:35.666Z,1018.96
2017-04-10T09:12:45.381Z,1019.02
2017-04-10T09:13:54.501Z,1018.97
2017-04-10T09:15:04.538Z,1019.01
2017-04-10T09:16:14.571Z,1019.02
2017-04-10T09:17:24.295Z,1019
2017-04-10T09:18:34.018Z,1019.03
2017-04-10T09:19:43.427Z,1019.04
2017-04-10T09:20:53.140Z,1019.03
2017-04-10T09:22:02.857Z,1019.06
2017-04-10T09:23:12.921Z,1019.06
2017-04-10T09:24:22.642Z,1019.13
2017-04-10T09:25:32.367Z,1019.18
2017-04-10T09:26:41.770Z,1019.25
2017-04-10T09:27:51.193Z,1019.42
2017-04-10T09:29:00.910Z,1019.32
2017-04-10T09:30:10.974Z,1019.44
2017-04-10T09:31:20.702Z,1019.48
2017-04-10T09:32:30.749Z,1019.43
2017-04-10T09:33:39.837Z,1019.41
2017-04-10T09:34:49.236Z,1019.37
2017-04-10T09:35:59.273Z,1019.41
2017-04-10T09:37:09.007Z,1019.43
2017-04-10T09:38:18.409Z,1019.29
2017-04-10T09:39:28.439Z,1019.15
2017-04-10T09:40:38.470Z,1019.1
2017-04-10T09:41:48.187Z,1019.13
2017-04-10T09:42:57.903Z,1019.13
2017-04-10T09:44:07.619Z,1019.12
2017-04-10T09:45:17.659Z,1019.06
2017-04-10T09:46:27.707Z,1019.05
2017-04-10T09:47:37.111Z,1019.11
2017-04-10T09:48:46.519Z,1019.21
2017-04-10T09:49:56.874Z,1019.22
2017-04-10T09:51:07.157Z,1019.14
2017-04-10T09:52:16.246Z,1019.22
2017-04-10T09:53:26.594Z,1019.22
2017-04-10T09:54:36.313Z,1019.33
2017-04-10T09:55:46.344Z,1019.29
2017-04-10T09:56:56.385Z,1019.26
2017-04-10T09:58:06.115Z,1019.28
2017-04-10T09:59:16.151Z,1019.21
2017-04-10T10:00:25.562Z,1019.27
2017-04-10T10:01:34.976Z,1019.3
2017-04-10T10:02:44.695Z,1019.34
2017-04-10T10:03:54.099Z,1019.36
2017-04-10T10:05:04.126Z,1019.32
2017-04-10T10:06:13.846Z,1019.44
2017-04-10T10:07:23.564Z,1019.43
2017-04-10T10:08:32.974Z,1019.47
2017-04-10T10:09:42.378Z,1019.43
2017-04-10T10:10:52.033Z,1019.35
2017-04-10T10:12:02.063Z,1019.41
2017-04-10T10:13:11.789Z,1019.48
2017-04-10T10:14:22.136Z,1019.51
2017-04-10T10:15:31.543Z,1019.51
2017-04-10T10:16:40.955Z,1019.59
2017-04-10T10:17:50.675Z,1019.52
2017-04-10T10:19:00.404Z,1019.52
2017-04-10T10:20:10.440Z,1019.54
2017-04-10T10:21:20.160Z,1019.51
2017-04-10T10:22:30.211Z,1019.51
2017-04-10T10:23:40.253Z,1019.49
2017-04-10T10:24:49.987Z,1019.55
2017-04-10T10:25:59.708Z,1019.69
2017-04-10T10:27:09.433Z,1019.52
2017-04-10T10:28:19.473Z,1019.46
2017-04-10T10:29:29.195Z,1019.41
2017-04-10T10:30:39.550Z,1019.45
2017-04-10T10:31:48.957Z,1019.42
2017-04-10T10:32:59.195Z,1019.36
2017-04-10T10:34:08.918Z,1019.49
2017-04-10T10:35:19.267Z,1019.37
2017-04-10T10:36:28.995Z,1019.36
2017-04-10T10:37:39.044Z,1019.37
2017-04-10T10:38:49.080Z,1019.38
2017-04-10T10:39:59.128Z,1019.27
2017-04-10T10:41:09.180Z,1019.35
2017-04-10T10:42:18.899Z,1020.03
2017-04-10T10:43:28.312Z,1019.74
2017-04-10T10:44:38.347Z,1019.65
2017-04-10T10:45:48.076Z,1019.7
2017-04-10T10:46:58.121Z,1019.43
2017-04-10T10:48:07.559Z,1019.46
2017-04-10T10:49:16.973Z,1019.53
2017-04-10T10:50:26.695Z,1019.45
2017-04-10T10:51:36.417Z,1019.62
2017-04-10T10:52:46.778Z,1019.51
2017-04-10T10:53:56.815Z,1019.38
2017-04-10T10:55:06.244Z,1019.25
2017-04-10T10:56:15.972Z,1019.24
2017-04-10T10:57:26.023Z,1019.16
2017-04-10T10:58:35.429Z,1019.17
2017-04-10T10:59:45.464Z,1019.37
2017-04-10T11:00:55.548Z,1019.44
2017-04-10T11:02:05.583Z,1019.42
2017-04-10T11:03:15.307Z,1019.42
2017-04-10T11:04:25.035Z,1019.4
2017-04-10T11:05:34.762Z,1019.32
2017-04-10T11:06:44.496Z,1019.52
2017-04-10T11:07:54.542Z,1019.43
2017-04-10T11:09:04.588Z,1020.01
2017-04-10T11:10:13.991Z,1020.36
2017-04-10T11:11:24.348Z,1020.22
2017-04-10T11:12:33.448Z,1019.63
2017-04-10T11:13:42.856Z,1020.26
2017-04-10T11:14:52.588Z,1019.78
2017-04-10T11:16:02.622Z,1019.39
2017-04-10T11:17:12.339Z,1019.38
2017-04-10T11:18:22.373Z,1019.26
2017-04-10T11:19:32.101Z,1019.2
2017-04-10T11:20:42.152Z,1019.14
2017-04-10T11:21:51.888Z,1019.14
2017-04-10T11:23:01.605Z,1019.1
2017-04-10T11:24:11.344Z,1019.2
2017-04-10T11:25:21.710Z,1019.16
2017-04-10T11:26:30.875Z,1019.14
2017-04-10T11:27:40.984Z,1019.08
2017-04-10T11:28:50.382Z,1019.17
2017-04-10T11:29:59.780Z,1019.19
2017-04-10T11:31:09.682Z,1019.26
2017-04-10T11:32:19.101Z,1019.31
2017-04-10T11:33:28.851Z,1019.48
2017-04-10T11:34:38.578Z,1019.39
2017-04-10T11:35:48.614Z,1019.43
2017-04-10T11:36:58.649Z,1019.49
2017-04-10T11:38:08.382Z,1019.55
2017-04-10T11:39:17.789Z,1019.59
2017-04-10T11:40:27.827Z,1019.84
2017-04-10T11:41:37.543Z,1019.69
2017-04-10T11:42:47.334Z,1019.67
2017-04-10T11:43:56.809Z,1019.57
2017-04-10T11:45:06.552Z,1019.68
2017-04-10T11:46:16.044Z,1019.6
2017-04-10T11:47:26.391Z,1019.59
2017-04-10T11:48:36.431Z,1019.64
2017-04-10T11:49:46.170Z,1019.71
2017-04-10T11:50:56.262Z,1019.72
2017-04-10T11:52:06.342Z,1019.59
2017-04-10T11:53:16.056Z,1019.99
2017-04-10T11:54:25.774Z,1019.89
2017-04-10T11:55:35.505Z,1019.87
2017-04-10T11:56:45.853Z,1019.88
2017-04-10T11:57:55.584Z,1019.73
2017-04-10T11:59:05.310Z,1019.65
2017-04-10T12:00:14.756Z,1019.91
2017-04-10T12:01:24.168Z,1019.71
2017-04-10T12:02:34.209Z,1019.81
2017-04-10T12:03:43.931Z,1019.83
2017-04-10T12:04:53.678Z,1019.69
2017-04-10T12:06:03.102Z,1019.73
2017-04-10T12:07:12.831Z,1019.61
2017-04-10T12:08:22.872Z,1019.63
2017-04-10T12:09:32.287Z,1019.57
2017-04-10T12:10:42.026Z,1019.55
2017-04-10T12:11:51.761Z,1019.6
2017-04-10T12:13:01.190Z,1019.61
2017-04-10T12:14:10.608Z,1019.63
2017-04-10T12:15:20.334Z,1019.65
2017-04-10T12:16:29.746Z,1019.64
2017-04-10T12:17:39.464Z,1019.68
2017-04-10T12:18:48.875Z,1019.7
2017-04-10T12:19:58.286Z,1019.7
2017-04-10T12:21:08.330Z,1019.72
2017-04-10T12:22:18.057Z,1019.64
2017-04-10T12:23:28.100Z,1019.66
2017-04-10T12:24:38.140Z,1019.86
2017-04-10T12:25:48.199Z,1019.95
2017-04-10T12:26:57.612Z,1019.93
2017-04-10T12:28:07.654Z,1019.75
2017-04-10T12:29:18.034Z,1019.81
2017-04-10T12:30:27.667Z,1019.92
2017-04-10T12:31:37.391Z,1019.81
2017-04-10T12:32:46.806Z,1019.77
2017-04-10T12:33:56.527Z,1020.01
2017-04-10T12:35:06.270Z,1019.81
2017-04-10T12:36:16.629Z,1019.74
2017-04-10T12:37:26.349Z,1019.74
2017-04-10T12:38:36.393Z,1019.84
2017-04-10T12:39:45.808Z,1019.84
2017-04-10T12:40:55.218Z,1019.78
2017-04-10T12:42:04.947Z,1019.78
2017-04-10T12:43:14.356Z,1019.85
2017-04-10T12:44:23.142Z,1019.95
2017-04-10T12:45:32.558Z,1019.8
2017-04-10T12:46:41.970Z,1019.71
2017-04-10T12:47:51.390Z,1019.94
2017-04-10T12:49:01.742Z,1019.93
2017-04-10T12:50:11.193Z,1019.8
2017-04-10T12:51:20.919Z,1019.79
2017-04-10T12:52:30.580Z,1019.9
2017-04-10T12:53:39.958Z,1019.89
2017-04-10T12:54:49.933Z,1020.06
2017-04-10T12:56:00.133Z,1020.01
